Time;durP1;ratioP1;P1;durP2;ratioP2;P2;SDS_P1;SDS_P2;PMS_P1;PMS_P2;Temp;Humidity;BMP_temperature;BMP_pressure;BME280_temperature;BME280_humidity;BME280_pressure;Samples;Min_cycle;Max_cycle;Signal;HPM_P1;HPM_P2
2022/06/07 00:02:24;;;;;;;;;;;13.10;99.90;;;;;;5111988;28;19932;-67
2022/06/07 00:04:50;;;;;;;;;;;13.10;99.90;;;;;;5112048;28;19920;-67
2022/06/07 00:07:15;;;;;;;;;;;13.00;99.90;;;;;;5111911;28;19927;-67
2022/06/07 00:09:41;;;;;;;;;;;13.10;99.90;;;;;;5111913;28;19923;-67
2022/06/07 00:12:07;;;;;;;;;;;13.00;99.90;;;;;;5112009;28;19920;-67
2022/06/07 00:14:34;;;;;;;;;;;13.00;99.90;;;;;;5111977;28;19919;-67
2022/06/07 00:17:01;;;;;;;;;;;13.00;99.90;;;;;;5110466;28;19927;-67
2022/06/07 00:19:26;;;;;;;;;;;13.00;99.90;;;;;;5111591;28;19976;-67
2022/06/07 00:21:52;;;;;;;;;;;13.00;99.90;;;;;;5111522;28;20400;-67
2022/06/07 00:24:17;;;;;;;;;;;13.10;99.90;;;;;;5111791;28;19919;-67
2022/06/07 00:26:42;;;;;;;;;;;13.10;99.90;;;;;;5111874;28;20307;-67
2022/06/07 00:29:08;;;;;;;;;;;13.00;99.90;;;;;;5111567;28;20006;-67
2022/06/07 00:31:35;;;;;;;;;;;13.10;99.90;;;;;;5111676;28;19976;-67
2022/06/07 00:34:00;;;;;;;;;;;13.10;99.90;;;;;;5111698;28;19920;-67
2022/06/07 00:36:27;;;;;;;;;;;13.20;99.90;;;;;;5110591;28;19924;-67
2022/06/07 00:38:52;;;;;;;;;;;13.10;99.90;;;;;;5111572;28;19924;-67
2022/06/07 00:41:17;;;;;;;;;;;13.10;99.90;;;;;;5111485;28;19938;-67
2022/06/07 00:44:03;;;;;;;;;;;13.20;99.90;;;;;;5111745;28;19966;-67
2022/06/07 00:46:28;;;;;;;;;;;13.10;99.90;;;;;;5111520;28;19920;-67
2022/06/07 00:48:54;;;;;;;;;;;13.10;99.90;;;;;;5111158;28;19924;-67
2022/06/07 00:51:19;;;;;;;;;;;13.10;99.90;;;;;;5115644;28;19941;-67
2022/06/07 00:53:45;;;;;;;;;;;13.10;99.90;;;;;;5115707;28;20011;-67
2022/06/07 00:56:10;;;;;;;;;;;13.20;99.90;;;;;;5115611;28;19930;-67
2022/06/07 00:58:36;;;;;;;;;;;13.10;99.90;;;;;;5115183;28;20287;-67
2022/06/07 01:01:02;;;;;;;;;;;13.20;99.90;;;;;;5114158;28;19953;-67
2022/06/07 01:03:27;;;;;;;;;;;13.20;99.90;;;;;;5115218;28;19927;-67
2022/06/07 01:05:54;;;;;;;;;;;13.20;99.90;;;;;;5115435;28;19924;-67
2022/06/07 01:11:04;;;;;;;;;;;13.20;99.90;;;;;;5115329;28;20010;-67
2022/06/07 01:13:32;;;;;;;;;;;13.20;99.90;;;;;;5114201;28;19972;-67
2022/06/07 01:15:58;;;;;;;;;;;13.20;99.90;;;;;;5115210;28;19962;-67
2022/06/07 01:18:24;;;;;;;;;;;13.20;99.90;;;;;;5115040;28;19931;-67
2022/06/07 01:21:08;;;;;;;;;;;13.20;99.90;;;;;;5115036;28;20407;-67
2022/06/07 01:23:34;;;;;;;;;;;13.10;99.90;;;;;;5115119;28;19919;-67
2022/06/07 01:26:00;;;;;;;;;;;13.20;99.90;;;;;;5115122;28;19943;-67
2022/06/07 01:28:25;;;;;;;;;;;13.20;99.90;;;;;;5113511;28;19920;-67
2022/06/07 01:30:50;;;;;;;;;;;13.10;99.90;;;;;;5114810;28;19927;-67
2022/06/07 01:33:16;;;;;;;;;;;13.20;99.90;;;;;;5114874;28;20022;-67
2022/06/07 01:35:45;;;;;;;;;;;13.20;99.90;;;;;;5114975;28;20399;-67
2022/06/07 01:38:10;;;;;;;;;;;13.20;99.90;;;;;;5114869;28;19920;-67
2022/06/07 01:43:20;;;;;;;;;;;13.20;99.90;;;;;;5114495;28;20330;-67
2022/06/07 01:45:46;;;;;;;;;;;13.20;99.90;;;;;;5114740;28;20010;-67
2022/06/07 01:48:11;;;;;;;;;;;13.20;99.90;;;;;;5114561;28;19946;-67
2022/06/07 01:50:37;;;;;;;;;;;13.20;99.90;;;;;;5114230;28;19926;-67
2022/06/07 01:53:02;;;;;;;;;;;13.20;99.90;;;;;;5114414;28;19945;-67
2022/06/07 01:55:27;;;;;;;;;;;13.20;99.90;;;;;;5114482;28;20328;-67
2022/06/07 01:57:53;;;;;;;;;;;13.20;99.90;;;;;;5114284;28;19977;-67
2022/06/07 02:00:18;;;;;;;;;;;13.30;99.90;;;;;;5113987;28;19920;-67
2022/06/07 02:02:44;;;;;;;;;;;13.20;99.90;;;;;;5113192;28;19927;-67
2022/06/07 02:05:10;;;;;;;;;;;13.20;99.90;;;;;;5114393;28;19927;-67
2022/06/07 02:07:35;;;;;;;;;;;13.30;99.90;;;;;;5114319;28;20013;-67
2022/06/07 02:10:01;;;;;;;;;;;13.20;99.90;;;;;;5114061;28;19924;-67
2022/06/07 02:12:26;;;;;;;;;;;13.20;99.90;;;;;;5113959;28;19928;-67
2022/06/07 02:14:52;;;;;;;;;;;13.20;99.90;;;;;;5113068;28;19923;-67
2022/06/07 02:17:17;;;;;;;;;;;13.20;99.90;;;;;;5113909;28;19930;-67
2022/06/07 02:19:44;;;;;;;;;;;13.20;99.90;;;;;;5113782;28;19920;-67
2022/06/07 02:22:09;;;;;;;;;;;13.20;99.90;;;;;;5113856;27;19924;-67
2022/06/07 02:24:35;;;;;;;;;;;13.20;99.90;;;;;;5113893;28;20337;-67
2022/06/07 02:27:06;;;;;;;;;;;13.20;99.90;;;;;;5113711;27;19926;-67
2022/06/07 02:29:33;;;;;;;;;;;13.20;99.90;;;;;;5113738;28;19961;-67
2022/06/07 02:32:00;;;;;;;;;;;13.30;99.90;;;;;;5113720;28;19920;-67
2022/06/07 02:34:26;;;;;;;;;;;13.20;99.90;;;;;;5113564;28;20603;-67
2022/06/07 02:36:55;;;;;;;;;;;13.20;99.90;;;;;;5112379;28;19930;-67
2022/06/07 02:39:21;;;;;;;;;;;13.20;99.90;;;;;;5113212;28;19926;-67
2022/06/07 02:41:47;;;;;;;;;;;13.20;99.90;;;;;;5113640;27;19928;-67
2022/06/07 02:44:13;;;;;;;;;;;13.30;99.90;;;;;;5113808;28;20009;-67
2022/06/07 02:46:38;;;;;;;;;;;13.20;99.90;;;;;;5113533;28;20002;-67
2022/06/07 02:49:04;;;;;;;;;;;13.20;99.90;;;;;;5113211;28;20430;-67
2022/06/07 02:51:29;;;;;;;;;;;13.20;99.90;;;;;;5113376;28;20312;-67
2022/06/07 02:53:56;;;;;;;;;;;13.20;99.90;;;;;;5113190;28;20015;-67
2022/06/07 02:56:22;;;;;;;;;;;13.20;99.90;;;;;;5113329;28;20370;-67
2022/06/07 02:58:47;;;;;;;;;;;13.20;99.90;;;;;;5112829;28;19927;-67
2022/06/07 03:01:13;;;;;;;;;;;13.20;99.90;;;;;;5113224;28;19924;-67
2022/06/07 03:03:39;;;;;;;;;;;13.20;99.90;;;;;;5113167;28;20031;-67
2022/06/07 03:06:04;;;;;;;;;;;13.30;99.90;;;;;;5113040;28;20416;-67
2022/06/07 03:08:30;;;;;;;;;;;13.30;99.90;;;;;;5112712;27;19919;-67
2022/06/07 03:10:55;;;;;;;;;;;13.20;99.90;;;;;;5113130;28;19945;-67
2022/06/07 03:13:21;;;;;;;;;;;13.20;99.90;;;;;;5112664;28;19923;-67
2022/06/07 03:15:47;;;;;;;;;;;13.20;99.90;;;;;;5112731;28;19930;-67
2022/06/07 03:18:12;;;;;;;;;;;13.20;99.90;;;;;;5110168;28;20006;-67
2022/06/07 03:20:38;;;;;;;;;;;13.20;99.90;;;;;;5109680;28;20324;-67
2022/06/07 03:23:04;;;;;;;;;;;13.20;99.90;;;;;;5112010;28;19930;-67
2022/06/07 03:25:30;;;;;;;;;;;13.20;99.90;;;;;;5112662;28;19971;-67
2022/06/07 03:27:55;;;;;;;;;;;13.30;99.90;;;;;;5112329;27;19926;-67
2022/06/07 03:30:21;;;;;;;;;;;13.20;99.90;;;;;;5111838;28;20006;-67
2022/06/07 03:32:46;;;;;;;;;;;13.30;99.90;;;;;;5111442;28;19931;-67
2022/06/07 03:35:13;;;;;;;;;;;13.30;99.90;;;;;;5111358;28;20307;-67
2022/06/07 03:37:38;;;;;;;;;;;13.30;99.90;;;;;;5112449;28;20068;-67
2022/06/07 03:40:05;;;;;;;;;;;13.20;99.90;;;;;;5112402;28;20415;-67
2022/06/07 03:42:30;;;;;;;;;;;13.30;99.90;;;;;;5112455;28;20287;-67
2022/06/07 03:44:56;;;;;;;;;;;13.20;99.90;;;;;;5112340;28;19931;-67
2022/06/07 03:47:21;;;;;;;;;;;13.20;99.90;;;;;;5112261;28;19971;-67
2022/06/07 03:49:47;;;;;;;;;;;13.20;99.90;;;;;;5112000;28;19920;-67
2022/06/07 03:52:13;;;;;;;;;;;13.20;99.90;;;;;;5112017;28;20303;-67
2022/06/07 03:54:39;;;;;;;;;;;13.30;99.90;;;;;;5112413;28;19923;-67
2022/06/07 03:57:05;;;;;;;;;;;13.20;99.90;;;;;;5112104;28;20344;-67
2022/06/07 03:59:31;;;;;;;;;;;13.20;99.90;;;;;;5111668;28;19920;-67
2022/06/07 04:01:56;;;;;;;;;;;13.20;99.90;;;;;;5112000;28;19928;-67
2022/06/07 04:04:22;;;;;;;;;;;13.20;99.90;;;;;;5112085;28;20311;-68
2022/06/07 04:09:39;;;;;;;;;;;13.30;99.90;;;;;;5111938;28;19920;-67
2022/06/07 04:12:12;;;;;;;;;;;13.30;99.90;;;;;;5112042;28;19924;-67
2022/06/07 04:14:38;;;;;;;;;;;13.30;99.90;;;;;;5111945;28;19927;-67
2022/06/07 04:17:04;;;;;;;;;;;13.20;99.90;;;;;;5111981;28;19919;-67
2022/06/07 04:19:29;;;;;;;;;;;13.30;99.90;;;;;;5111575;28;20455;-67
2022/06/07 04:21:55;;;;;;;;;;;13.20;99.90;;;;;;5111889;28;19946;-67
2022/06/07 04:24:20;;;;;;;;;;;13.30;99.90;;;;;;5111436;28;20373;-67
2022/06/07 04:26:47;;;;;;;;;;;13.30;99.90;;;;;;5110523;28;19984;-67
2022/06/07 04:29:13;;;;;;;;;;;13.30;99.90;;;;;;5111487;28;19919;-67
2022/06/07 04:31:39;;;;;;;;;;;13.30;99.90;;;;;;5111686;28;19920;-67
2022/06/07 04:34:04;;;;;;;;;;;13.20;99.90;;;;;;5111610;28;20334;-67
2022/06/07 04:36:30;;;;;;;;;;;13.30;99.90;;;;;;5111827;28;19928;-67
2022/06/07 04:38:57;;;;;;;;;;;13.30;99.90;;;;;;5111571;28;20325;-67
2022/06/07 04:41:23;;;;;;;;;;;13.30;99.90;;;;;;5110211;28;20002;-67
2022/06/07 04:43:49;;;;;;;;;;;13.30;99.90;;;;;;5111667;28;20376;-67
2022/06/07 04:46:14;;;;;;;;;;;13.30;99.90;;;;;;5111605;28;19923;-67
2022/06/07 04:48:40;;;;;;;;;;;13.30;99.90;;;;;;5111309;28;19920;-67
2022/06/07 04:51:11;;;;;;;;;;;13.30;99.90;;;;;;5111807;28;19920;-67
2022/06/07 04:53:36;;;;;;;;;;;13.30;99.90;;;;;;5111543;28;20018;-67
2022/06/07 04:56:09;;;;;;;;;;;13.30;99.90;;;;;;5111745;28;19967;-67
2022/06/07 04:58:35;;;;;;;;;;;13.30;99.90;;;;;;5111186;28;19926;-67
2022/06/07 05:01:00;;;;;;;;;;;13.30;99.90;;;;;;5111431;28;20006;-67
2022/06/07 05:03:26;;;;;;;;;;;13.30;99.90;;;;;;5111519;28;19920;-67
2022/06/07 05:05:51;;;;;;;;;;;13.30;99.90;;;;;;5111332;28;19923;-67
2022/06/07 05:08:17;;;;;;;;;;;13.40;99.90;;;;;;5111455;28;19971;-68
2022/06/07 05:10:43;;;;;;;;;;;13.30;99.90;;;;;;5111335;28;20038;-67
2022/06/07 05:13:08;;;;;;;;;;;13.40;99.90;;;;;;5111291;28;19920;-67
2022/06/07 05:15:34;;;;;;;;;;;13.40;99.90;;;;;;5111263;28;20414;-67
2022/06/07 05:17:59;;;;;;;;;;;13.30;99.90;;;;;;5111269;28;20072;-67
2022/06/07 05:20:25;;;;;;;;;;;13.40;99.90;;;;;;5111186;28;20022;-67
2022/06/07 05:22:50;;;;;;;;;;;13.40;99.90;;;;;;5111255;28;20353;-67
2022/06/07 05:25:16;;;;;;;;;;;13.50;99.90;;;;;;5111381;28;19924;-67
2022/06/07 05:27:43;;;;;;;;;;;13.50;99.90;;;;;;5111222;28;19930;-67
2022/06/07 05:30:10;;;;;;;;;;;13.50;99.90;;;;;;5110988;28;20295;-67
2022/06/07 05:32:36;;;;;;;;;;;13.50;99.90;;;;;;5111367;28;19919;-67
2022/06/07 05:35:04;;;;;;;;;;;13.40;99.90;;;;;;5111324;28;19930;-67
2022/06/07 05:37:30;;;;;;;;;;;13.50;99.90;;;;;;5113744;28;19974;-67
2022/06/07 05:39:56;;;;;;;;;;;13.50;99.90;;;;;;5114658;28;19959;-67
2022/06/07 05:42:21;;;;;;;;;;;13.50;99.90;;;;;;5114612;28;19935;-68
2022/06/07 05:44:47;;;;;;;;;;;13.50;99.90;;;;;;5114630;28;19985;-68
2022/06/07 05:47:12;;;;;;;;;;;13.50;99.90;;;;;;5114848;28;19927;-67
2022/06/07 05:49:38;;;;;;;;;;;13.50;99.90;;;;;;5114440;28;20284;-67
2022/06/07 05:52:04;;;;;;;;;;;13.50;99.90;;;;;;5114573;28;20014;-67
2022/06/07 05:54:30;;;;;;;;;;;13.60;99.90;;;;;;5114599;28;19919;-67
2022/06/07 05:56:56;;;;;;;;;;;13.60;99.90;;;;;;5113245;28;19999;-67
2022/06/07 05:59:21;;;;;;;;;;;13.60;99.90;;;;;;5113902;28;20038;-67
2022/06/07 06:01:47;;;;;;;;;;;13.60;99.90;;;;;;5114355;28;20402;-68
2022/06/07 06:04:12;;;;;;;;;;;13.60;99.90;;;;;;5114401;28;19927;-67
2022/06/07 06:06:38;;;;;;;;;;;13.60;99.90;;;;;;5114357;28;19970;-67
2022/06/07 06:11:48;;;;;;;;;;;13.70;99.90;;;;;;5114075;28;20018;-67
2022/06/07 06:14:14;;;;;;;;;;;13.70;99.90;;;;;;5114401;28;19959;-67
2022/06/07 06:16:39;;;;;;;;;;;13.70;99.90;;;;;;5114216;28;19920;-67
2022/06/07 06:19:05;;;;;;;;;;;13.70;99.90;;;;;;5113856;28;20014;-68
2022/06/07 06:21:35;;;;;;;;;;;13.70;99.90;;;;;;5112473;28;20295;-67
2022/06/07 06:24:01;;;;;;;;;;;13.80;99.90;;;;;;5113954;28;19973;-67
2022/06/07 06:26:26;;;;;;;;;;;13.80;99.90;;;;;;5113763;28;20300;-67
2022/06/07 06:28:52;;;;;;;;;;;13.80;99.90;;;;;;5113731;28;19967;-67
2022/06/07 06:31:22;;;;;;;;;;;13.80;99.90;;;;;;5113951;28;20329;-67
2022/06/07 06:33:49;;;;;;;;;;;13.80;99.90;;;;;;5113713;28;20622;-67
2022/06/07 06:36:16;;;;;;;;;;;13.80;99.90;;;;;;5113652;28;20007;-67
2022/06/07 06:38:43;;;;;;;;;;;13.80;99.90;;;;;;5113532;28;19923;-67
2022/06/07 06:41:09;;;;;;;;;;;13.80;99.90;;;;;;5113362;28;19930;-67
2022/06/07 06:43:34;;;;;;;;;;;13.80;99.90;;;;;;5113704;28;19920;-67
2022/06/07 06:46:07;;;;;;;;;;;13.80;99.90;;;;;;5113714;28;19920;-67
2022/06/07 06:48:33;;;;;;;;;;;13.70;99.90;;;;;;5112891;28;19972;-67
2022/06/07 06:51:04;;;;;;;;;;;13.70;99.90;;;;;;5113624;28;19920;-67
2022/06/07 06:53:30;;;;;;;;;;;13.70;99.90;;;;;;5113631;28;19985;-67
2022/06/07 06:55:56;;;;;;;;;;;13.70;99.90;;;;;;5113823;28;19927;-67
2022/06/07 06:58:21;;;;;;;;;;;13.70;99.90;;;;;;5111780;28;19928;-68
2022/06/07 07:00:48;;;;;;;;;;;13.70;99.90;;;;;;5113174;28;19919;-68
2022/06/07 07:03:14;;;;;;;;;;;13.70;99.90;;;;;;5113107;28;20383;-67
2022/06/07 07:05:39;;;;;;;;;;;13.70;99.90;;;;;;5113157;28;19927;-67
2022/06/07 07:08:05;;;;;;;;;;;13.60;99.90;;;;;;5111731;28;20028;-67
2022/06/07 07:10:30;;;;;;;;;;;13.70;99.90;;;;;;5112615;28;20427;-67
2022/06/07 07:12:56;;;;;;;;;;;13.70;99.90;;;;;;5113118;28;19920;-67
2022/06/07 07:15:21;;;;;;;;;;;13.60;99.90;;;;;;5113134;28;19933;-67
2022/06/07 07:17:47;;;;;;;;;;;13.70;99.90;;;;;;5113033;28;19998;-68
2022/06/07 07:20:12;;;;;;;;;;;13.60;99.90;;;;;;5112583;28;20388;-67
2022/06/07 07:22:38;;;;;;;;;;;13.60;99.90;;;;;;5111366;28;20312;-68
2022/06/07 07:25:05;;;;;;;;;;;13.60;99.90;;;;;;5112963;28;19931;-68
2022/06/07 07:27:30;;;;;;;;;;;13.60;99.90;;;;;;5113028;28;20014;-67
2022/06/07 07:29:56;;;;;;;;;;;13.70;99.90;;;;;;5112586;28;20690;-67
2022/06/07 07:32:21;;;;;;;;;;;13.60;99.90;;;;;;5112569;28;19924;-67
2022/06/07 07:34:47;;;;;;;;;;;13.70;99.90;;;;;;5112636;28;19993;-67
2022/06/07 07:37:12;;;;;;;;;;;13.60;99.90;;;;;;5112630;28;19927;-67
2022/06/07 07:39:37;;;;;;;;;;;13.70;99.90;;;;;;5112207;28;19977;-68
2022/06/07 07:42:03;;;;;;;;;;;13.70;99.90;;;;;;5112483;28;20128;-67
2022/06/07 07:44:29;;;;;;;;;;;13.70;99.90;;;;;;5112386;27;20325;-68
2022/06/07 07:46:55;;;;;;;;;;;13.70;99.90;;;;;;5112424;28;19946;-67
2022/06/07 07:49:22;;;;;;;;;;;13.70;99.90;;;;;;5110626;28;19920;-67
2022/06/07 07:51:48;;;;;;;;;;;13.70;99.90;;;;;;5112192;28;19920;-67
2022/06/07 07:54:15;;;;;;;;;;;13.60;99.90;;;;;;5112079;28;19919;-68
2022/06/07 07:56:40;;;;;;;;;;;13.70;99.90;;;;;;5112228;28;20019;-68
2022/06/07 07:59:06;;;;;;;;;;;13.70;99.90;;;;;;5110984;28;20022;-67
2022/06/07 08:01:32;;;;;;;;;;;13.70;99.90;;;;;;5112108;28;19967;-67
2022/06/07 08:03:59;;;;;;;;;;;13.70;99.90;;;;;;5112051;28;20532;-67
2022/06/07 08:06:25;;;;;;;;;;;13.70;99.90;;;;;;5111870;28;19930;-68
2022/06/07 08:08:52;;;;;;;;;;;13.70;99.90;;;;;;5111878;28;19926;-67
2022/06/07 08:11:19;;;;;;;;;;;13.70;99.90;;;;;;5112221;28;20289;-68
2022/06/07 08:13:44;;;;;;;;;;;13.80;99.90;;;;;;5112025;28;19931;-67
2022/06/07 08:16:10;;;;;;;;;;;13.80;99.90;;;;;;5111986;28;19920;-68
2022/06/07 08:18:36;;;;;;;;;;;13.80;99.90;;;;;;5111705;28;20441;-68
2022/06/07 08:21:04;;;;;;;;;;;13.80;99.90;;;;;;5110407;28;19928;-67
2022/06/07 08:23:31;;;;;;;;;;;13.90;99.90;;;;;;5111942;28;19927;-68
2022/06/07 08:25:57;;;;;;;;;;;13.90;99.90;;;;;;5111805;28;19927;-68
2022/06/07 08:28:22;;;;;;;;;;;13.90;99.90;;;;;;5111753;28;19970;-67
2022/06/07 08:30:48;;;;;;;;;;;13.90;99.90;;;;;;5111662;28;19963;-67
2022/06/07 08:38:43;;;;;;;;;;;13.90;99.90;;;;;;5111582;28;19920;-67
2022/06/07 08:41:23;;;;;;;;;;;13.90;99.90;;;;;;5111731;28;19924;-67
2022/06/07 08:43:48;;;;;;;;;;;13.90;99.90;;;;;;5111651;28;19974;-67
2022/06/07 08:46:16;;;;;;;;;;;13.90;99.90;;;;;;5111524;28;19963;-67
2022/06/07 08:48:42;;;;;;;;;;;13.90;99.90;;;;;;5111549;28;19920;-67
2022/06/07 08:51:19;;;;;;;;;;;13.90;99.90;;;;;;5111784;28;19930;-67
2022/06/07 08:53:49;;;;;;;;;;;13.90;99.90;;;;;;5111625;28;19919;-67
2022/06/07 08:56:21;;;;;;;;;;;13.90;99.90;;;;;;5111685;28;19965;-67
2022/06/07 08:58:49;;;;;;;;;;;13.90;99.90;;;;;;5110963;28;19923;-67
2022/06/07 09:01:17;;;;;;;;;;;13.90;99.90;;;;;;5111607;28;19928;-68
2022/06/07 09:04:02;;;;;;;;;;;13.90;99.90;;;;;;5110131;28;19969;-67
2022/06/07 09:06:47;;;;;;;;;;;13.90;99.90;;;;;;5111719;28;19920;-67
2022/06/07 09:09:13;;;;;;;;;;;14.00;99.90;;;;;;5111179;28;19919;-67
2022/06/07 09:14:38;;;;;;;;;;;14.00;99.90;;;;;;5115545;28;19923;-67
2022/06/07 09:17:09;;;;;;;;;;;14.10;99.90;;;;;;5115477;28;19924;-67
2022/06/07 09:19:36;;;;;;;;;;;14.10;99.90;;;;;;5114899;28;19924;-68
2022/06/07 09:22:06;;;;;;;;;;;14.10;99.90;;;;;;5115199;28;19963;-68
2022/06/07 09:24:34;;;;;;;;;;;14.10;99.90;;;;;;5115339;28;19928;-67
2022/06/07 09:27:04;;;;;;;;;;;14.10;99.90;;;;;;5115164;28;19927;-67
2022/06/07 09:29:34;;;;;;;;;;;14.10;99.90;;;;;;5114807;28;19920;-67
2022/06/07 09:31:59;;;;;;;;;;;14.10;99.90;;;;;;5114828;28;19920;-68
2022/06/07 09:34:26;;;;;;;;;;;14.20;99.90;;;;;;5115000;28;20310;-68
2022/06/07 09:37:02;;;;;;;;;;;14.20;99.90;;;;;;5115079;27;20312;-67
2022/06/07 09:39:29;;;;;;;;;;;14.20;99.90;;;;;;5114703;28;19924;-67
2022/06/07 09:42:00;;;;;;;;;;;14.30;99.90;;;;;;5114745;28;20021;-67
2022/06/07 09:44:29;;;;;;;;;;;14.20;99.90;;;;;;5114613;28;20376;-67
2022/06/07 09:46:57;;;;;;;;;;;14.30;99.90;;;;;;5114780;28;19927;-67
2022/06/07 09:49:40;;;;;;;;;;;14.30;99.90;;;;;;5114485;28;19923;-68
2022/06/07 09:52:11;;;;;;;;;;;14.30;99.90;;;;;;5114668;28;20019;-67
2022/06/07 09:54:40;;;;;;;;;;;14.30;99.90;;;;;;5114928;28;19927;-68
2022/06/07 09:57:44;;;;;;;;;;;14.40;99.90;;;;;;5114358;28;19919;-68
2022/06/07 10:00:09;;;;;;;;;;;14.40;99.90;;;;;;5030960;28;20410;-67
2022/06/07 10:02:37;;;;;;;;;;;14.50;99.90;;;;;;5031255;28;19979;-68
2022/06/07 10:05:22;;;;;;;;;;;14.60;99.90;;;;;;5070734;28;19948;-67
2022/06/07 10:07:50;;;;;;;;;;;14.60;99.90;;;;;;5114478;28;19970;-67
2022/06/07 10:10:25;;;;;;;;;;;14.60;99.90;;;;;;5113898;28;20360;-67
2022/06/07 10:13:05;;;;;;;;;;;14.60;99.90;;;;;;5114279;28;19934;-67
2022/06/07 10:15:37;;;;;;;;;;;14.60;99.90;;;;;;5114146;28;19973;-68
2022/06/07 10:18:10;;;;;;;;;;;14.70;99.90;;;;;;5114286;28;20295;-67
2022/06/07 10:20:42;;;;;;;;;;;14.70;99.90;;;;;;5113836;28;19920;-67
2022/06/07 10:23:26;;;;;;;;;;;14.70;99.90;;;;;;5111702;28;20018;-67
2022/06/07 10:25:58;;;;;;;;;;;14.70;99.90;;;;;;5113991;28;20022;-67
2022/06/07 10:28:36;;;;;;;;;;;14.70;99.90;;;;;;5113760;28;20401;-67
2022/06/07 10:31:05;;;;;;;;;;;14.70;99.90;;;;;;5114075;28;19935;-68
2022/06/07 10:33:33;;;;;;;;;;;14.70;99.90;;;;;;5113867;28;19919;-67
2022/06/07 10:36:07;;;;;;;;;;;14.80;99.90;;;;;;5113591;28;19919;-67
2022/06/07 10:38:35;;;;;;;;;;;14.90;99.90;;;;;;5113282;28;20448;-67
2022/06/07 10:41:24;;;;;;;;;;;15.00;99.90;;;;;;5113800;28;19920;-67
2022/06/07 10:44:01;;;;;;;;;;;15.00;99.90;;;;;;5102565;28;19919;-67
2022/06/07 10:46:28;;;;;;;;;;;15.10;99.90;;;;;;5113654;28;19923;-67
2022/06/07 10:49:12;;;;;;;;;;;15.10;99.90;;;;;;5113112;28;19931;-67
2022/06/07 10:54:28;;;;;;;;;;;15.10;99.90;;;;;;5113240;28;20372;-67
2022/06/07 10:57:00;;;;;;;;;;;15.10;99.90;;;;;;5112012;28;19969;-67
2022/06/07 10:59:26;;;;;;;;;;;15.20;99.90;;;;;;5112800;28;19950;-67
2022/06/07 11:02:24;;;;;;;;;;;15.20;99.90;;;;;;5113290;28;19981;-67
2022/06/07 11:10:32;;;;;;;;;;;15.20;99.90;;;;;;5111385;28;19919;-67
2022/06/07 11:13:27;;;;;;;;;;;15.30;99.90;;;;;;5113086;28;19926;-67
2022/06/07 11:16:03;;;;;;;;;;;15.20;99.90;;;;;;5112991;28;19920;-67
2022/06/07 11:18:29;;;;;;;;;;;15.30;99.90;;;;;;5112758;28;19920;-68
2022/06/07 11:21:00;;;;;;;;;;;15.30;99.90;;;;;;5112825;28;20344;-67
2022/06/07 11:23:33;;;;;;;;;;;15.40;99.90;;;;;;5112676;28;20295;-67
2022/06/07 11:26:01;;;;;;;;;;;15.50;99.90;;;;;;5112906;28;20016;-67
2022/06/07 11:28:28;;;;;;;;;;;15.50;99.90;;;;;;5112393;28;19993;-67
2022/06/07 11:30:58;;;;;;;;;;;15.70;99.90;;;;;;5112665;28;19968;-67
2022/06/07 11:33:33;;;;;;;;;;;15.70;99.90;;;;;;5112568;28;19959;-68
2022/06/07 11:36:25;;;;;;;;;;;15.80;99.90;;;;;;5112657;28;19919;-67
2022/06/07 11:38:57;;;;;;;;;;;15.80;99.90;;;;;;5108254;28;20014;-67
2022/06/07 11:41:37;;;;;;;;;;;16.00;99.90;;;;;;5112230;28;20513;-67
2022/06/07 11:44:04;;;;;;;;;;;16.00;99.90;;;;;;5112461;28;20376;-67
2022/06/07 11:46:32;;;;;;;;;;;16.10;99.90;;;;;;5112506;28;20026;-67
2022/06/07 11:49:00;;;;;;;;;;;16.20;99.90;;;;;;5112106;28;19926;-67
2022/06/07 11:51:33;;;;;;;;;;;16.30;99.90;;;;;;5112064;28;20434;-67
2022/06/07 11:54:01;;;;;;;;;;;16.40;99.90;;;;;;5112468;28;19955;-67
2022/06/07 11:56:30;;;;;;;;;;;16.40;99.90;;;;;;5112300;28;20065;-67
2022/06/07 11:59:16;;;;;;;;;;;16.60;99.90;;;;;;5111935;28;19919;-67
2022/06/07 12:01:44;;;;;;;;;;;16.60;99.90;;;;;;5070160;28;19927;-67
2022/06/07 12:04:31;;;;;;;;;;;16.80;99.90;;;;;;5111265;28;21275;-67
2022/06/07 12:07:05;;;;;;;;;;;16.70;99.90;;;;;;5112295;28;19920;-67
2022/06/07 12:09:30;;;;;;;;;;;16.80;99.90;;;;;;5111937;28;19927;-67
2022/06/07 12:11:56;;;;;;;;;;;16.90;99.90;;;;;;5111901;28;20311;-67
2022/06/07 12:14:25;;;;;;;;;;;16.90;99.90;;;;;;5111843;28;19924;-67
2022/06/07 12:16:56;;;;;;;;;;;17.00;99.90;;;;;;5112179;28;20353;-67
2022/06/07 12:19:21;;;;;;;;;;;17.00;99.90;;;;;;5111780;28;19969;-67
2022/06/07 12:21:54;;;;;;;;;;;17.10;99.90;;;;;;5111686;28;19970;-67
2022/06/07 12:24:20;;;;;;;;;;;17.10;99.90;;;;;;5111817;28;20418;-67
2022/06/07 12:26:47;;;;;;;;;;;17.30;99.90;;;;;;5111832;28;20011;-67
2022/06/07 12:29:23;;;;;;;;;;;17.40;99.90;;;;;;5111518;28;19927;-67
2022/06/07 12:31:51;;;;;;;;;;;17.60;99.90;;;;;;5111844;28;20395;-67
2022/06/07 12:34:21;;;;;;;;;;;17.50;99.90;;;;;;5112022;28;20348;-67
2022/06/07 12:36:54;;;;;;;;;;;17.70;99.90;;;;;;5111790;28;20380;-67
2022/06/07 12:39:20;;;;;;;;;;;17.80;99.90;;;;;;5111390;28;19945;-67
2022/06/07 12:41:52;;;;;;;;;;;17.70;99.90;;;;;;5111837;28;19924;-67
2022/06/07 12:44:27;;;;;;;;;;;17.70;99.90;;;;;;5111863;28;19959;-67
2022/06/07 12:46:53;;;;;;;;;;;17.80;99.90;;;;;;5113738;28;20384;-67
2022/06/07 12:49:24;;;;;;;;;;;17.80;99.90;;;;;;5115572;28;19927;-67
2022/06/07 12:51:54;;;;;;;;;;;17.90;99.90;;;;;;5115663;28;19920;-67
2022/06/07 12:54:22;;;;;;;;;;;17.90;99.90;;;;;;5115680;28;20006;-67
2022/06/07 12:56:49;;;;;;;;;;;17.80;99.90;;;;;;5115864;28;19923;-67
2022/06/07 12:59:22;;;;;;;;;;;17.70;99.90;;;;;;5115274;28;19970;-67
2022/06/07 13:01:49;;;;;;;;;;;17.80;99.90;;;;;;5115408;28;19932;-67
2022/06/07 13:04:18;;;;;;;;;;;17.90;99.90;;;;;;5115407;28;19972;-67
2022/06/07 13:07:16;;;;;;;;;;;17.60;99.90;;;;;;5115912;28;19924;-67
2022/06/07 13:09:42;;;;;;;;;;;17.70;99.90;;;;;;5032030;28;20036;-67
2022/06/07 13:12:09;;;;;;;;;;;17.70;99.90;;;;;;5032220;28;20011;-67
2022/06/07 13:14:35;;;;;;;;;;;17.80;99.90;;;;;;5032260;28;20051;-67
2022/06/07 13:17:27;;;;;;;;;;;17.60;99.90;;;;;;5032034;28;20391;-67
2022/06/07 13:19:53;;;;;;;;;;;17.60;99.90;;;;;;5031948;28;19968;-68
2022/06/07 13:22:19;;;;;;;;;;;17.60;99.90;;;;;;5032018;28;19980;-67
2022/06/07 13:24:47;;;;;;;;;;;17.70;99.90;;;;;;5032143;28;20011;-67
2022/06/07 13:27:31;;;;;;;;;;;17.80;99.90;;;;;;5032129;28;19969;-67
2022/06/07 13:29:59;;;;;;;;;;;17.80;99.90;;;;;;5031687;28;19925;-67
2022/06/07 13:32:27;;;;;;;;;;;17.90;99.90;;;;;;5031757;28;19921;-67
2022/06/07 13:34:54;;;;;;;;;;;17.80;99.90;;;;;;5031869;28;19925;-67
2022/06/07 13:37:27;;;;;;;;;;;17.70;99.90;;;;;;5031867;28;19921;-67
2022/06/07 13:39:58;;;;;;;;;;;17.80;99.90;;;;;;5031336;28;19990;-67
2022/06/07 13:42:42;;;;;;;;;;;17.80;99.90;;;;;;5031558;28;20008;-67
2022/06/07 13:45:11;;;;;;;;;;;17.70;99.90;;;;;;5067911;28;20302;-67
2022/06/07 13:47:41;;;;;;;;;;;17.60;99.90;;;;;;5114701;28;19937;-67
2022/06/07 13:55:49;;;;;;;;;;;17.90;99.90;;;;;;5114616;28;19920;-67
2022/06/07 13:58:16;;;;;;;;;;;17.90;99.90;;;;;;5113198;28;19930;-67
2022/06/07 14:00:42;;;;;;;;;;;17.80;99.90;;;;;;5114234;28;19945;-67
2022/06/07 14:03:15;;;;;;;;;;;17.90;99.90;;;;;;5114493;28;19928;-67
2022/06/07 14:05:41;;;;;;;;;;;17.80;99.90;;;;;;5114524;28;19926;-67
2022/06/07 14:08:11;;;;;;;;;;;17.90;99.90;;;;;;5114381;28;19998;-67
2022/06/07 14:10:37;;;;;;;;;;;18.00;99.90;;;;;;5114235;28;20625;-67
2022/06/07 14:13:02;;;;;;;;;;;17.90;99.90;;;;;;5112969;28;19968;-67
2022/06/07 14:15:28;;;;;;;;;;;17.90;99.90;;;;;;5114328;28;20294;-67
2022/06/07 14:17:54;;;;;;;;;;;17.90;99.90;;;;;;5114316;28;19969;-67
2022/06/07 14:20:21;;;;;;;;;;;18.00;99.90;;;;;;5113943;28;20346;-67
2022/06/07 14:22:48;;;;;;;;;;;18.10;99.90;;;;;;5112564;28;19934;-67
2022/06/07 14:25:14;;;;;;;;;;;18.00;99.90;;;;;;5113997;28;19923;-67
2022/06/07 14:27:40;;;;;;;;;;;18.00;99.90;;;;;;5113879;28;19926;-67
2022/06/07 14:30:06;;;;;;;;;;;18.00;99.90;;;;;;5113706;28;20032;-67
2022/06/07 14:32:35;;;;;;;;;;;18.00;99.90;;;;;;5113937;28;19920;-67
2022/06/07 14:35:00;;;;;;;;;;;18.20;99.90;;;;;;5113911;28;20280;-67
2022/06/07 14:37:27;;;;;;;;;;;18.30;99.90;;;;;;5113817;28;20014;-67
2022/06/07 14:39:53;;;;;;;;;;;18.60;99.90;;;;;;5113452;28;20379;-68
2022/06/07 14:42:18;;;;;;;;;;;18.50;99.90;;;;;;5113389;28;19930;-67
2022/06/07 14:44:44;;;;;;;;;;;18.70;99.90;;;;;;5113829;28;19920;-68
2022/06/07 14:47:15;;;;;;;;;;;18.80;99.90;;;;;;5113772;28;19920;-67
2022/06/07 14:49:41;;;;;;;;;;;18.70;99.90;;;;;;5113376;28;19926;-67
2022/06/07 14:52:07;;;;;;;;;;;18.60;99.90;;;;;;5113420;28;20303;-67
2022/06/07 14:54:34;;;;;;;;;;;18.60;99.90;;;;;;5113431;28;20260;-67
2022/06/07 14:57:00;;;;;;;;;;;18.60;99.90;;;;;;5113226;28;19926;-67